TAF KTUS
KTUS 072320Z 0800/0824 21009G20KT P6SM SKC FM080300 14004KT P6SM FEW250=
METAR KTUS
KTUS 080153Z 00000KT 10SM CLR 17/M03 A3000 RMK AO2 SLP136 T01721033 ?
KTUS 080053Z 21005KT 10SM CLR 21/M03 A2998 RMK AO2 SLP129 T02061033 ?
KTUS 072353Z 20010KT 10SM CLR 23/M04 A2996 RMK AO2 SLP116 T02331039 10244 20211 53005 ?
KTUS 072253Z 22008G19KT 10SM CLR 24/M04 A2994 RMK AO2 SLP112 T02441044 ?
COR KTUS 072153Z VRB03KT 10SM CLR 24/M04 A2994 RMK AO2 SLP106 T02441044
WC KTUS
WS KTUS
WV KTUS